createdAt,value
2018-09-21T00:00:10.118Z,2.93
2018-09-21T00:02:37.750Z,4.13
2018-09-21T00:05:06.263Z,3.27
2018-09-21T00:07:34.040Z,3.47
2018-09-21T00:10:01.587Z,3.27
2018-09-21T00:12:29.355Z,3.33
2018-09-21T00:14:56.985Z,3.13
2018-09-21T00:17:24.597Z,3.87
2018-09-21T00:19:52.142Z,3.87
2018-09-21T00:22:19.811Z,3.63
2018-09-21T00:24:47.514Z,3.50
2018-09-21T00:27:15.186Z,4.50
2018-09-21T00:29:42.798Z,3.60
2018-09-21T00:32:10.360Z,3.80
2018-09-21T00:34:38.022Z,3.30
2018-09-21T00:37:05.702Z,3.87
2018-09-21T00:39:33.367Z,3.57
2018-09-21T00:42:01.025Z,3.60
2018-09-21T00:44:28.675Z,3.87
2018-09-21T00:46:56.363Z,3.83
2018-09-21T00:49:24.122Z,3.30
2018-09-21T00:51:51.818Z,4.17
2018-09-21T00:54:19.461Z,4.30
2018-09-21T00:56:47.087Z,3.77
2018-09-21T00:59:14.959Z,3.60
2018-09-21T01:01:42.619Z,4.43
2018-09-21T01:04:10.301Z,3.43
2018-09-21T01:06:37.981Z,4.03
2018-09-21T01:09:07.631Z,4.60
2018-09-21T01:11:35.264Z,3.40
2018-09-21T01:14:02.853Z,4.10
2018-09-21T01:16:30.487Z,4.30
2018-09-21T01:18:58.462Z,4.00
2018-09-21T01:21:26.099Z,4.00
2018-09-21T01:23:53.759Z,3.90
2018-09-21T01:26:21.487Z,3.47
2018-09-21T01:28:49.237Z,3.50
2018-09-21T01:31:16.946Z,3.53
2018-09-21T01:33:44.648Z,3.77
2018-09-21T01:36:12.386Z,4.13
2018-09-21T01:38:40.096Z,3.47
2018-09-21T01:41:07.774Z,3.80
2018-09-21T01:43:35.321Z,3.70
2018-09-21T01:46:03.033Z,5.63
2018-09-21T01:48:30.726Z,3.97
2018-09-21T01:50:58.351Z,4.10
2018-09-21T01:53:26.015Z,3.70
2018-09-21T01:55:53.651Z,4.47
2018-09-21T01:58:21.211Z,4.53
2018-09-21T02:00:48.855Z,4.20
2018-09-21T02:03:16.519Z,3.90
2018-09-21T02:05:44.138Z,3.70
2018-09-21T02:08:11.768Z,4.23
2018-09-21T02:10:39.413Z,3.90
2018-09-21T02:13:07.144Z,3.73
2018-09-21T02:15:34.807Z,4.40
2018-09-21T02:18:02.436Z,4.23
2018-09-21T02:20:30.070Z,3.73
2018-09-21T02:22:57.730Z,3.77
2018-09-21T02:25:25.359Z,3.87
2018-09-21T02:27:52.958Z,3.97
2018-09-21T02:30:20.609Z,4.93
2018-09-21T02:32:48.135Z,3.73
2018-09-21T02:35:15.783Z,3.80
2018-09-21T02:37:43.457Z,3.43
2018-09-21T02:40:11.156Z,4.10
2018-09-21T02:42:38.694Z,3.70
2018-09-21T02:45:06.595Z,3.53
2018-09-21T02:47:34.305Z,3.60
2018-09-21T02:50:02.046Z,3.90
2018-09-21T02:52:29.625Z,5.43
2018-09-21T02:54:57.299Z,4.20
2018-09-21T02:57:25.042Z,4.37
2018-09-21T02:59:53.409Z,3.87
2018-09-21T03:02:21.050Z,3.90
2018-09-21T03:04:54.407Z,4.13
2018-09-21T03:07:22.642Z,5.03
2018-09-21T03:09:50.337Z,4.40
2018-09-21T03:12:17.985Z,4.10
2018-09-21T03:14:45.616Z,4.03
2018-09-21T03:17:13.363Z,4.30
2018-09-21T03:19:41.162Z,4.33
2018-09-21T03:22:08.894Z,4.40
2018-09-21T03:24:36.525Z,4.03
2018-09-21T03:27:04.258Z,4.67
2018-09-21T03:29:31.930Z,4.03
2018-09-21T03:31:59.743Z,5.70
2018-09-21T03:34:28.561Z,4.27
2018-09-21T03:36:56.219Z,4.30
2018-09-21T03:39:23.770Z,4.30
2018-09-21T03:41:51.475Z,4.30
2018-09-21T03:44:19.139Z,4.63
2018-09-21T03:46:46.897Z,4.27
2018-09-21T03:49:14.704Z,4.83
2018-09-21T03:51:42.299Z,4.40
2018-09-21T03:54:09.903Z,4.60
2018-09-21T03:56:37.975Z,4.73
2018-09-21T03:59:05.522Z,4.47
2018-09-21T04:01:33.183Z,5.50
2018-09-21T04:04:00.757Z,4.73
2018-09-21T04:06:28.289Z,3.90
2018-09-21T04:08:55.826Z,3.87
2018-09-21T04:11:23.406Z,3.97
2018-09-21T04:13:51.067Z,5.03
2018-09-21T04:16:18.711Z,4.50
2018-09-21T04:18:46.374Z,4.23
2018-09-21T04:21:13.893Z,3.67
2018-09-21T04:23:41.414Z,4.10
2018-09-21T04:26:08.950Z,3.80
2018-09-21T04:28:36.571Z,4.20
2018-09-21T04:31:04.191Z,4.43
2018-09-21T04:33:31.805Z,4.33
2018-09-21T04:35:59.371Z,4.90
2018-09-21T04:38:26.988Z,3.83
2018-09-21T04:40:55.118Z,4.50
2018-09-21T04:43:22.719Z,4.60
2018-09-21T04:45:50.244Z,3.97
2018-09-21T04:48:17.860Z,4.40
2018-09-21T04:50:45.515Z,4.03
2018-09-21T04:53:13.121Z,4.57
2018-09-21T04:55:40.738Z,7.73
2018-09-21T04:58:08.253Z,4.20
2018-09-21T05:00:35.863Z,4.30
2018-09-21T05:03:03.391Z,4.33
2018-09-21T05:05:31.057Z,4.20
2018-09-21T05:07:58.574Z,5.03
2018-09-21T05:10:26.196Z,4.60
2018-09-21T05:12:54.496Z,4.33
2018-09-21T05:15:22.169Z,4.03
2018-09-21T05:17:50.515Z,4.20
2018-09-21T05:20:18.109Z,4.20
2018-09-21T05:22:45.783Z,4.63
2018-09-21T05:25:13.338Z,5.53
2018-09-21T05:27:40.945Z,4.03
2018-09-21T05:30:08.569Z,4.73
2018-09-21T05:32:36.066Z,3.97
2018-09-21T05:35:03.927Z,4.13
2018-09-21T05:37:31.646Z,3.73
2018-09-21T05:39:59.265Z,3.63
2018-09-21T05:42:26.916Z,4.27
2018-09-21T05:44:55.319Z,3.58
2018-09-21T05:47:22.938Z,3.72
2018-09-21T05:49:50.562Z,4.03
2018-09-21T05:52:18.311Z,3.92
2018-09-21T05:54:46.641Z,3.92
2018-09-21T05:57:14.262Z,3.70
2018-09-21T05:59:41.965Z,3.50
2018-09-21T06:02:09.668Z,4.00
2018-09-21T06:04:37.268Z,3.42
2018-09-21T06:07:04.927Z,5.12
2018-09-21T06:09:32.551Z,4.03
2018-09-21T06:12:00.235Z,4.28
2018-09-21T06:14:27.846Z,3.90
2018-09-21T06:16:55.483Z,3.60
2018-09-21T06:19:23.186Z,3.87
2018-09-21T06:21:50.783Z,3.47
2018-09-21T06:24:18.595Z,3.60
2018-09-21T06:26:46.290Z,3.87
2018-09-21T06:29:13.814Z,3.60
2018-09-21T06:31:41.486Z,4.30
2018-09-21T06:34:09.155Z,7.10
2018-09-21T06:36:36.740Z,7.67
2018-09-21T06:39:06.411Z,4.60
2018-09-21T06:41:33.954Z,4.05
2018-09-21T06:44:01.587Z,6.85
2018-09-21T06:46:29.259Z,4.50
2018-09-21T06:48:56.780Z,4.30
2018-09-21T06:51:24.613Z,4.05
2018-09-21T06:53:52.278Z,4.25
2018-09-21T06:56:19.955Z,5.08
2018-09-21T06:58:47.606Z,4.05
2018-09-21T07:01:15.210Z,3.95
2018-09-21T07:03:42.754Z,3.85
2018-09-21T07:06:10.294Z,3.92
2018-09-21T07:08:37.881Z,4.45
2018-09-21T07:11:05.442Z,4.37
2018-09-21T07:13:33.008Z,4.85
2018-09-21T07:16:00.688Z,4.22
2018-09-21T07:18:28.327Z,5.03
2018-09-21T07:20:55.951Z,3.42
2018-09-21T07:23:23.587Z,3.67
2018-09-21T07:25:51.338Z,3.45
2018-09-21T07:28:18.978Z,3.77
2018-09-21T07:30:46.613Z,4.78
2018-09-21T07:33:14.244Z,2.72
2018-09-21T07:35:41.846Z,3.40
2018-09-21T07:38:09.487Z,4.12
2018-09-21T07:40:37.164Z,3.45
2018-09-21T07:43:04.836Z,3.45
2018-09-21T07:45:32.427Z,3.30
2018-09-21T07:48:00.063Z,3.72
2018-09-21T07:50:27.752Z,3.83
2018-09-21T07:52:55.328Z,3.40
2018-09-21T07:55:22.848Z,3.45
2018-09-21T07:57:50.379Z,4.72
2018-09-21T08:00:18.067Z,4.90
2018-09-21T08:02:45.602Z,4.60
2018-09-21T08:05:13.308Z,4.53
2018-09-21T08:07:40.766Z,3.83
2018-09-21T08:10:08.512Z,4.37
2018-09-21T08:12:36.386Z,3.22
2018-09-21T08:15:03.921Z,5.72
2018-09-21T08:17:31.482Z,5.03
2018-09-21T08:19:59.298Z,3.12
2018-09-21T08:22:26.999Z,3.65
2018-09-21T08:24:54.554Z,3.08
2018-09-21T08:27:22.187Z,4.00
2018-09-21T08:29:49.689Z,3.70
2018-09-21T08:32:17.214Z,4.03
2018-09-21T08:34:44.747Z,3.00
2018-09-21T08:37:12.317Z,3.47
2018-09-21T08:39:39.846Z,3.40
2018-09-21T08:42:07.469Z,3.42
2018-09-21T08:44:35.123Z,6.22
2018-09-21T08:47:02.910Z,3.47
2018-09-21T08:49:30.446Z,4.12
2018-09-21T08:51:59.271Z,5.10
2018-09-21T08:54:28.903Z,3.52
2018-09-21T08:56:58.298Z,3.37
2018-09-21T09:02:03.990Z,3.37
2018-09-21T09:04:31.627Z,3.90
2018-09-21T09:06:59.215Z,3.52
2018-09-21T09:09:26.699Z,3.62
2018-09-21T09:11:58.238Z,3.85
2018-09-21T09:14:33.761Z,3.55
2018-09-21T09:19:46.455Z,3.80
2018-09-21T09:25:04.134Z,3.27
2018-09-21T09:27:31.630Z,4.80
2018-09-21T09:30:00.376Z,3.72
2018-09-21T09:32:28.706Z,4.70
2018-09-21T09:34:57.042Z,3.77
2018-09-21T09:37:24.553Z,4.10
2018-09-21T09:39:52.074Z,3.45
2018-09-21T09:42:19.574Z,4.10
2018-09-21T09:44:47.130Z,3.55
2018-09-21T09:47:14.718Z,3.90
2018-09-21T09:49:42.222Z,3.25
2018-09-21T09:52:10.594Z,2.90
2018-09-21T09:54:38.142Z,2.98
2018-09-21T09:57:05.558Z,4.80
2018-09-21T09:59:33.150Z,4.10
2018-09-21T10:02:00.885Z,3.33
2018-09-21T10:04:28.848Z,3.30
2018-09-21T10:06:56.374Z,3.47
2018-09-21T10:09:24.111Z,3.67
2018-09-21T10:11:51.643Z,3.30
2018-09-21T10:14:19.520Z,3.12
2018-09-21T10:16:47.058Z,3.55
2018-09-21T10:19:14.656Z,3.30
2018-09-21T10:21:42.182Z,3.58
2018-09-21T10:24:09.781Z,5.12
2018-09-21T10:26:37.433Z,2.90
2018-09-21T10:29:05.000Z,3.33
2018-09-21T10:31:32.611Z,3.40
2018-09-21T10:34:00.155Z,3.10
2018-09-21T10:36:27.769Z,3.75
2018-09-21T10:38:55.352Z,3.27
2018-09-21T10:41:22.934Z,4.00
2018-09-21T10:43:50.567Z,3.62
2018-09-21T10:46:18.102Z,4.83
2018-09-21T10:48:45.709Z,3.80
2018-09-21T10:51:13.244Z,4.20
2018-09-21T10:53:40.862Z,3.85
2018-09-21T10:56:08.373Z,4.78
2018-09-21T10:58:35.965Z,4.65
2018-09-21T11:01:03.474Z,4.80
2018-09-21T11:03:31.133Z,4.75
2018-09-21T11:05:58.669Z,4.42
2018-09-21T11:08:26.182Z,4.12
2018-09-21T11:10:53.718Z,3.83
2018-09-21T11:13:21.836Z,3.67
2018-09-21T11:15:49.736Z,7.70
2018-09-21T11:18:17.450Z,7.78
2018-09-21T11:20:45.030Z,4.53
2018-09-21T11:23:12.650Z,3.92
2018-09-21T11:25:40.169Z,3.52
2018-09-21T11:28:07.836Z,9.13
2018-09-21T11:30:35.416Z,5.95
2018-09-21T11:33:03.120Z,7.33
2018-09-21T11:35:30.737Z,6.65
2018-09-21T11:37:58.281Z,4.17
2018-09-21T11:40:26.631Z,3.42
2018-09-21T11:42:54.154Z,4.40
2018-09-21T11:45:21.682Z,3.90
2018-09-21T11:47:49.415Z,3.50
2018-09-21T11:50:16.941Z,3.72
2018-09-21T11:52:44.606Z,4.15
2018-09-21T11:55:12.267Z,4.42
2018-09-21T11:57:39.931Z,5.78
2018-09-21T12:00:07.506Z,4.15
2018-09-21T12:02:35.127Z,2.77
2018-09-21T12:05:02.734Z,3.08
2018-09-21T12:07:30.266Z,4.28
2018-09-21T12:09:57.854Z,4.03
2018-09-21T12:12:25.406Z,3.60
2018-09-21T12:14:53.025Z,3.55
2018-09-21T12:17:20.572Z,4.33
2018-09-21T12:19:48.474Z,3.92
2018-09-21T12:22:16.375Z,5.30
2018-09-21T12:24:44.044Z,4.35
2018-09-21T12:27:11.622Z,3.75
2018-09-21T12:29:39.287Z,3.05
2018-09-21T12:32:06.834Z,3.30
2018-09-21T12:34:34.366Z,3.25
2018-09-21T12:37:01.890Z,4.42
2018-09-21T12:39:29.446Z,3.40
2018-09-21T12:41:56.963Z,3.62
2018-09-21T12:44:24.476Z,3.05
2018-09-21T12:46:52.007Z,4.30
2018-09-21T12:49:19.549Z,4.47
2018-09-21T12:51:47.078Z,3.33
2018-09-21T12:54:14.637Z,4.60
2018-09-21T12:56:42.198Z,5.40
2018-09-21T12:59:09.837Z,3.80
2018-09-21T13:01:37.413Z,3.17
2018-09-21T13:04:04.966Z,3.70
2018-09-21T13:06:32.522Z,4.05
2018-09-21T13:09:00.034Z,3.72
2018-09-21T13:11:27.632Z,3.80
2018-09-21T13:13:55.136Z,3.40
2018-09-21T13:16:22.679Z,3.15
2018-09-21T13:18:50.203Z,3.67
2018-09-21T13:21:17.718Z,2.90
2018-09-21T13:23:45.230Z,3.97
2018-09-21T13:26:12.757Z,4.10
2018-09-21T13:28:40.357Z,3.58
2018-09-21T13:31:07.969Z,4.30
2018-09-21T13:33:35.499Z,3.45
2018-09-21T13:36:03.100Z,5.03
2018-09-21T13:38:30.617Z,4.03
2018-09-21T13:40:58.162Z,5.25
2018-09-21T13:43:25.747Z,4.00
2018-09-21T13:45:53.257Z,3.87
2018-09-21T13:48:20.820Z,3.25
2018-09-21T13:50:48.490Z,6.03
2018-09-21T13:53:16.026Z,4.22
2018-09-21T13:55:43.562Z,3.25
2018-09-21T13:58:11.182Z,2.77
2018-09-21T14:00:38.726Z,3.47
2018-09-21T14:03:06.254Z,2.95
2018-09-21T14:05:33.935Z,3.10
2018-09-21T14:08:01.446Z,3.15
2018-09-21T14:10:28.990Z,3.10
2018-09-21T14:12:56.545Z,3.30
2018-09-21T14:15:24.879Z,2.92
2018-09-21T14:17:52.537Z,2.75
2018-09-21T14:20:20.058Z,6.65
2018-09-21T14:22:47.558Z,3.60
2018-09-21T14:25:15.259Z,7.15
2018-09-21T14:27:42.883Z,2.58
2018-09-21T14:30:10.406Z,2.87
2018-09-21T14:32:38.041Z,3.98
2018-09-21T14:35:05.606Z,6.47
2018-09-21T14:37:33.206Z,3.25
2018-09-21T14:40:00.730Z,4.28
2018-09-21T14:42:28.221Z,3.12
2018-09-21T14:44:55.775Z,2.72
2018-09-21T14:47:23.427Z,3.15
2018-09-21T14:49:50.999Z,2.77
2018-09-21T14:52:18.676Z,4.25
2018-09-21T14:54:46.244Z,3.47
2018-09-21T14:57:13.895Z,2.92
2018-09-21T14:59:41.466Z,2.67
2018-09-21T15:02:09.340Z,2.40
2018-09-21T15:04:36.874Z,2.65
2018-09-21T15:07:04.566Z,3.87
2018-09-21T15:09:32.138Z,4.65
2018-09-21T15:11:59.718Z,3.35
2018-09-21T15:14:27.242Z,4.25
2018-09-21T15:16:54.941Z,2.55
2018-09-21T15:19:22.464Z,2.87
2018-09-21T15:21:50.177Z,2.52
2018-09-21T15:24:17.758Z,2.17
2018-09-21T15:26:45.321Z,2.20
2018-09-21T15:29:12.893Z,3.62
2018-09-21T15:31:40.534Z,1.50
2018-09-21T15:34:08.200Z,2.58
2018-09-21T15:36:35.806Z,1.60
2018-09-21T15:39:05.466Z,7.25
2018-09-21T15:41:32.986Z,1.77
2018-09-21T15:44:00.522Z,3.83
2018-09-21T15:46:28.041Z,4.30
2018-09-21T15:48:55.627Z,3.85
2018-09-21T15:51:23.133Z,1.87
2018-09-21T15:53:50.666Z,1.67
2018-09-21T15:56:18.226Z,2.90
2018-09-21T15:58:45.808Z,1.07
2018-09-21T16:01:13.330Z,1.30
2018-09-21T16:03:40.979Z,1.20
2018-09-21T16:06:08.661Z,0.80
2018-09-21T16:08:36.218Z,0.50
2018-09-21T16:11:03.810Z,1.10
2018-09-21T16:13:31.371Z,0.50
2018-09-21T16:15:58.934Z,0.70
2018-09-21T16:18:26.518Z,1.60
2018-09-21T16:20:54.101Z,1.67
2018-09-21T16:23:21.873Z,0.90
2018-09-21T16:25:49.770Z,1.30
2018-09-21T16:28:17.635Z,0.57
2018-09-21T16:30:45.233Z,0.73
2018-09-21T16:33:12.809Z,0.80
2018-09-21T16:35:40.348Z,0.40
2018-09-21T16:38:08.242Z,0.40
2018-09-21T16:40:35.989Z,2.20
2018-09-21T16:43:03.540Z,0.40
2018-09-21T16:45:31.079Z,0.50
2018-09-21T16:48:05.311Z,1.80
2018-09-21T16:50:32.846Z,2.40
2018-09-21T16:53:00.390Z,1.00
2018-09-21T16:55:27.917Z,0.47
2018-09-21T16:57:55.503Z,2.30
2018-09-21T17:00:23.069Z,1.20
2018-09-21T17:02:50.637Z,1.37
2018-09-21T17:05:18.154Z,0.83
2018-09-21T17:07:45.794Z,0.93
2018-09-21T17:10:19.988Z,0.30
2018-09-21T17:12:47.582Z,0.93
2018-09-21T17:15:15.110Z,0.97
2018-09-21T17:17:42.653Z,0.73
2018-09-21T17:20:10.272Z,0.70
2018-09-21T17:22:37.834Z,1.27
2018-09-21T17:25:05.690Z,1.27
2018-09-21T17:27:33.275Z,0.83
2018-09-21T17:30:00.890Z,1.98
2018-09-21T17:32:28.455Z,1.23
2018-09-21T17:34:56.046Z,0.73
2018-09-21T17:37:24.774Z,1.87
2018-09-21T17:39:52.318Z,1.00
2018-09-21T17:42:19.979Z,2.20
2018-09-21T17:44:47.585Z,1.50
2018-09-21T17:47:15.279Z,1.57
2018-09-21T17:49:42.818Z,1.70
2018-09-21T17:52:10.373Z,3.70
2018-09-21T17:54:38.264Z,0.70
2018-09-21T17:57:06.121Z,1.33
2018-09-21T17:59:33.698Z,1.43
2018-09-21T18:02:01.296Z,0.90
2018-09-21T18:04:28.946Z,1.97
2018-09-21T18:06:57.576Z,1.70
2018-09-21T18:09:25.154Z,2.03
2018-09-21T18:11:52.897Z,1.37
2018-09-21T18:14:20.454Z,2.07
2018-09-21T18:16:47.971Z,1.53
2018-09-21T18:19:15.644Z,1.77
2018-09-21T18:21:43.238Z,0.90
2018-09-21T18:24:10.995Z,1.37
2018-09-21T18:26:38.534Z,1.13
2018-09-21T18:29:06.259Z,3.13
2018-09-21T18:31:33.910Z,2.00
2018-09-21T18:34:01.475Z,6.37
2018-09-21T18:36:29.378Z,1.73
2018-09-21T18:38:56.965Z,1.63
2018-09-21T18:41:24.594Z,2.27
2018-09-21T18:43:52.118Z,1.37
2018-09-21T18:46:19.687Z,1.00
2018-09-21T18:48:47.241Z,2.77
2018-09-21T18:51:14.771Z,1.30
2018-09-21T18:53:42.337Z,1.63
2018-09-21T18:56:09.974Z,1.33
2018-09-21T18:58:38.006Z,1.07
2018-09-21T19:01:05.594Z,1.07
2018-09-21T19:03:33.238Z,1.30
2018-09-21T19:06:00.867Z,1.00
2018-09-21T19:08:28.410Z,1.27
2018-09-21T19:10:56.105Z,2.77
2018-09-21T19:13:23.642Z,2.43
2018-09-21T19:15:51.266Z,1.70
2018-09-21T19:18:18.786Z,2.27
2018-09-21T19:20:46.345Z,1.80
2018-09-21T19:23:13.866Z,2.43
2018-09-21T19:25:41.427Z,1.63
2018-09-21T19:28:08.954Z,1.97
2018-09-21T19:30:36.614Z,2.37
2018-09-21T19:33:04.168Z,4.27
2018-09-21T19:35:31.794Z,1.77
2018-09-21T19:37:59.349Z,1.53
2018-09-21T19:40:26.890Z,3.20
2018-09-21T19:42:54.524Z,1.93
2018-09-21T19:45:22.209Z,2.30
2018-09-21T19:47:49.668Z,0.83
2018-09-21T19:50:17.298Z,2.73
2018-09-21T19:52:44.870Z,1.70
2018-09-21T19:55:12.575Z,1.13
2018-09-21T19:57:40.332Z,2.30
2018-09-21T20:00:07.939Z,1.77
2018-09-21T20:02:35.561Z,1.80
2018-09-21T20:05:03.101Z,3.50
2018-09-21T20:07:30.644Z,1.83
2018-09-21T20:09:58.158Z,1.13
2018-09-21T20:12:25.678Z,1.20
2018-09-21T20:14:53.214Z,1.03
2018-09-21T20:17:20.754Z,1.93
2018-09-21T20:19:48.361Z,2.47
2018-09-21T20:22:15.958Z,1.13
2018-09-21T20:24:43.519Z,1.10
2018-09-21T20:27:11.049Z,2.33
2018-09-21T20:29:38.762Z,2.53
2018-09-21T20:34:14.281Z,1.37
2018-09-21T20:36:41.827Z,1.60
2018-09-21T20:39:09.436Z,2.70
2018-09-21T20:41:37.046Z,2.23
2018-09-21T20:44:11.351Z,1.30
2018-09-21T20:46:38.938Z,1.50
2018-09-21T20:49:06.487Z,1.00
2018-09-21T20:51:34.026Z,1.70
2018-09-21T20:54:01.586Z,2.13
2018-09-21T20:56:29.098Z,2.33
2018-09-21T20:58:56.620Z,0.80
2018-09-21T21:01:24.303Z,3.33
2018-09-21T21:03:51.862Z,1.87
2018-09-21T21:06:19.517Z,1.10
2018-09-21T21:08:47.122Z,1.33
2018-09-21T21:11:14.665Z,1.43
2018-09-21T21:13:42.232Z,1.07
2018-09-21T21:16:09.748Z,2.13
2018-09-21T21:18:37.272Z,1.63
2018-09-21T21:21:04.804Z,1.33
2018-09-21T21:23:32.410Z,2.43
2018-09-21T21:25:59.938Z,1.20
2018-09-21T21:28:27.505Z,1.30
2018-09-21T21:30:55.125Z,2.03
2018-09-21T21:33:23.208Z,1.50
2018-09-21T21:35:51.396Z,0.97
2018-09-21T21:38:19.453Z,2.03
2018-09-21T21:40:48.026Z,2.07
2018-09-21T21:43:15.925Z,1.43
2018-09-21T21:45:44.240Z,2.27
2018-09-21T21:48:12.252Z,1.30
2018-09-21T21:50:40.143Z,2.07
2018-09-21T21:53:08.098Z,1.00
2018-09-21T21:55:36.231Z,0.87
2018-09-21T21:58:04.345Z,1.37
2018-09-21T22:00:37.858Z,0.90
2018-09-21T22:03:05.441Z,1.80
2018-09-21T22:05:33.042Z,1.67
2018-09-21T22:08:00.817Z,2.13
2018-09-21T22:10:28.614Z,1.20
2018-09-21T22:13:01.834Z,1.03
2018-09-21T22:15:29.632Z,2.23
2018-09-21T22:17:57.291Z,1.10
2018-09-21T22:20:25.061Z,3.20
2018-09-21T22:22:52.904Z,4.13
2018-09-21T22:25:20.656Z,3.13
2018-09-21T22:27:48.252Z,1.57
2018-09-21T22:30:15.808Z,1.43
2018-09-21T22:32:43.349Z,1.17
2018-09-21T22:35:11.611Z,1.00
2018-09-21T22:37:39.639Z,1.33
2018-09-21T22:40:07.502Z,0.83
2018-09-21T22:42:36.154Z,2.13
2018-09-21T22:45:04.632Z,1.03
2018-09-21T22:47:32.774Z,1.00
2018-09-21T22:50:00.729Z,1.13
2018-09-21T22:52:29.111Z,0.90
2018-09-21T22:54:56.658Z,1.60
2018-09-21T22:57:24.432Z,1.30
2018-09-21T22:59:52.010Z,2.07
2018-09-21T23:02:19.705Z,1.70
2018-09-21T23:04:47.264Z,1.47
2018-09-21T23:07:14.795Z,1.23
2018-09-21T23:09:42.610Z,3.07
2018-09-21T23:12:10.159Z,1.17
2018-09-21T23:14:37.747Z,1.30
2018-09-21T23:17:05.552Z,2.17
2018-09-21T23:19:33.222Z,0.77
2018-09-21T23:22:00.913Z,1.17
2018-09-21T23:24:28.743Z,2.83
2018-09-21T23:26:56.262Z,0.80
2018-09-21T23:29:23.829Z,1.57
2018-09-21T23:31:51.407Z,2.70
2018-09-21T23:34:19.091Z,1.30
2018-09-21T23:36:46.791Z,7.20
2018-09-21T23:39:14.386Z,2.80
2018-09-21T23:41:41.947Z,2.07
2018-09-21T23:44:10.026Z,2.27
2018-09-21T23:46:37.808Z,1.20
2018-09-21T23:49:05.481Z,1.03
2018-09-21T23:51:33.002Z,2.27
2018-09-21T23:54:00.583Z,1.60
2018-09-21T23:56:28.145Z,2.73
2018-09-21T23:58:55.818Z,0.70
